Time;durP1;ratioP1;P1;durP2;ratioP2;P2;SDS_P1;SDS_P2;PMS_P1;PMS_P2;Temp;Humidity;BMP_temperature;BMP_pressure;BME280_temperature;BME280_humidity;BME280_pressure;Samples;Min_cycle;Max_cycle;Signal;HPM_P1;HPM_P2
2022/12/12 00:00:26;;;;;;;7.40;3.42;;;-1.60;99.90;;;;;;5108008;28;20539;-73
2022/12/12 00:02:52;;;;;;;5.60;2.77;;;-1.70;99.90;;;;;;5106787;28;20511;-72
2022/12/12 00:05:19;;;;;;;3.50;2.53;;;-1.80;99.90;;;;;;5108053;28;20523;-73
2022/12/12 00:07:46;;;;;;;3.63;3.00;;;-1.80;99.90;;;;;;5102644;28;20427;-72
2022/12/12 00:10:13;;;;;;;3.75;2.75;;;-1.90;99.90;;;;;;5101598;27;21019;-72
2022/12/12 00:12:40;;;;;;;5.80;2.37;;;-2.00;99.90;;;;;;5097313;28;20421;-73
2022/12/12 00:15:08;;;;;;;5.80;2.17;;;-2.10;99.90;;;;;;5095911;28;20428;-72
2022/12/12 00:17:35;;;;;;;2.78;2.58;;;-2.10;99.90;;;;;;5098944;27;20463;-74
2022/12/12 00:20:03;;;;;;;5.40;2.53;;;-2.20;99.90;;;;;;5099244;27;20425;-72
2022/12/12 00:22:30;;;;;;;2.80;2.43;;;-2.20;99.90;;;;;;5103175;27;20465;-73
2022/12/12 00:24:57;;;;;;;5.20;2.80;;;-2.20;99.90;;;;;;5101896;27;20427;-73
2022/12/12 00:27:24;;;;;;;5.75;2.83;;;-2.20;99.90;;;;;;5110652;27;20450;-72
2022/12/12 00:29:52;;;;;;;3.80;2.50;;;-2.20;99.90;;;;;;5108401;27;20421;-73
2022/12/12 00:32:19;;;;;;;1.98;1.77;;;-2.30;99.90;;;;;;5098730;27;20736;-72
2022/12/12 00:34:46;;;;;;;5.15;2.33;;;-2.30;99.90;;;;;;5099414;28;20432;-74
2022/12/12 00:37:12;;;;;;;2.63;2.35;;;-2.40;99.90;;;;;;5109470;28;20909;-72
2022/12/12 00:39:39;;;;;;;2.92;1.92;;;-2.40;99.90;;;;;;5101845;27;20457;-74
2022/12/12 00:42:06;;;;;;;1.92;1.83;;;-2.50;99.90;;;;;;5080775;28;20430;-73
2022/12/12 00:44:33;;;;;;;3.80;2.15;;;-2.60;99.90;;;;;;5108571;28;20435;-73
2022/12/12 00:47:01;;;;;;;4.82;1.90;;;-2.60;99.90;;;;;;5101919;27;20426;-72
2022/12/12 00:49:29;;;;;;;6.43;2.78;;;-2.70;99.90;;;;;;5091743;28;20503;-72
2022/12/12 00:51:55;;;;;;;9.38;2.53;;;-2.80;99.90;;;;;;5103944;27;20422;-74
2022/12/12 00:54:22;;;;;;;5.80;2.83;;;-2.80;99.90;;;;;;5106114;28;20452;-72
2022/12/12 00:56:49;;;;;;;4.83;2.80;;;-2.80;99.90;;;;;;5095677;27;20568;-74
2022/12/12 00:59:19;;;;;;;3.50;1.88;;;-2.70;99.90;;;;;;5100436;28;20431;-74
2022/12/12 01:01:48;;;;;;;3.17;2.00;;;-2.70;99.90;;;;;;5091957;27;20437;-72
2022/12/12 01:04:15;;;;;;;5.90;2.38;;;-2.60;99.90;;;;;;5106712;27;20447;-74
2022/12/12 01:06:41;;;;;;;2.35;2.15;;;-2.50;99.90;;;;;;5100308;27;20426;-74
2022/12/12 01:09:11;;;;;;;1.67;1.55;;;-2.50;99.90;;;;;;5103099;27;20430;-71
2022/12/12 01:11:38;;;;;;;3.70;1.45;;;-2.50;99.90;;;;;;5108558;27;20474;-71
2022/12/12 01:14:04;;;;;;;3.15;2.50;;;-2.40;99.90;;;;;;5108048;28;20469;-71
2022/12/12 01:16:32;;;;;;;6.63;2.28;;;-2.40;99.90;;;;;;5117625;27;20429;-75
2022/12/12 01:18:59;;;;;;;4.05;3.05;;;-2.40;99.90;;;;;;5091347;28;20530;-72
2022/12/12 01:21:26;;;;;;;4.20;1.88;;;-2.40;99.90;;;;;;5106757;27;20778;-72
2022/12/12 01:23:56;;;;;;;4.93;2.10;;;-2.40;99.90;;;;;;5106108;27;20424;-72
2022/12/12 01:26:23;;;;;;;2.80;2.28;;;-2.30;99.90;;;;;;5108527;28;20424;-72
2022/12/12 01:28:51;;;;;;;4.25;2.45;;;-2.20;99.90;;;;;;5103190;27;20946;-71
2022/12/12 01:31:23;;;;;;;3.28;2.17;;;-2.20;99.90;;;;;;5106792;28;20416;-74
2022/12/12 01:33:56;;;;;;;3.83;2.22;;;-2.20;99.90;;;;;;5107712;27;20868;-73
2022/12/12 01:36:23;;;;;;;4.00;1.67;;;-2.10;99.90;;;;;;5097038;28;20428;-72
2022/12/12 01:38:53;;;;;;;7.35;2.30;;;-2.00;99.90;;;;;;5103320;27;20729;-72
2022/12/12 01:41:19;;;;;;;6.40;2.42;;;-2.00;99.90;;;;;;5117584;27;20832;-74
2022/12/12 01:43:46;;;;;;;3.10;2.17;;;-2.00;99.90;;;;;;5104422;27;20435;-72
2022/12/12 01:46:37;;;;;;;3.58;2.22;;;-2.00;99.90;;;;;;5109622;27;20509;-72
2022/12/12 01:49:23;;;;;;;7.18;2.97;;;-2.10;99.90;;;;;;5104081;27;20513;-72
2022/12/12 01:51:59;;;;;;;6.35;2.88;;;-2.10;99.90;;;;;;5104697;27;20433;-73
2022/12/12 01:54:39;;;;;;;4.75;2.88;;;-2.10;99.90;;;;;;5103069;27;20425;-72
2022/12/12 01:57:29;;;;;;;3.13;2.83;;;-2.10;99.90;;;;;;5111888;27;20435;-73
2022/12/12 01:59:58;;;;;;;2.10;1.60;;;-2.10;99.90;;;;;;5091210;27;20444;-74
2022/12/12 02:02:25;;;;;;;2.53;2.13;;;-2.10;99.90;;;;;;5104611;27;20432;-74
2022/12/12 02:04:52;;;;;;;6.85;3.17;;;-2.10;99.90;;;;;;5096542;27;20430;-72
2022/12/12 02:07:19;;;;;;;3.20;2.90;;;-2.00;1.00;;;;;;5097067;27;20833;-72
2022/12/12 02:09:49;;;;;;;5.47;3.50;;;-2.00;1.00;;;;;;5086240;28;20493;-72
2022/12/12 02:12:16;;;;;;;5.28;3.05;;;-1.90;1.00;;;;;;5102512;27;20428;-72
2022/12/12 02:14:49;;;;;;;2.42;1.73;;;-1.90;1.00;;;;;;5103845;28;20424;-71
2022/12/12 02:17:35;;;;;;;2.53;2.33;;;-1.80;1.00;;;;;;5104302;27;20430;-73
2022/12/12 02:20:49;;;;;;;5.82;2.50;;;-1.70;12.50;;;;;;5113292;27;20435;-73
2022/12/12 02:23:50;;;;;;;5.15;2.38;;;-1.70;99.90;;;;;;5043272;28;20425;-73
2022/12/12 02:26:38;;;;;;;6.90;2.40;;;-1.70;99.90;;;;;;5080960;28;20432;-72
2022/12/12 02:29:18;;;;;;;1.98;1.77;;;-1.70;99.90;;;;;;5100406;28;20790;-74
2022/12/12 02:31:50;;;;;;;7.95;2.30;;;-1.60;99.90;;;;;;5084339;28;20425;-73
2022/12/12 02:34:48;;;;;;;5.30;2.55;;;-1.60;99.90;;;;;;5096394;27;20420;-73
2022/12/12 02:37:35;;;;;;;6.25;2.58;;;-1.60;99.90;;;;;;5094692;27;20857;-73
2022/12/12 02:40:27;;;;;;;6.80;2.43;;;-1.60;99.90;;;;;;5097978;27;20422;-72
2022/12/12 02:43:09;;;;;;;2.72;2.53;;;-1.60;99.90;;;;;;5097630;27;20433;-73
2022/12/12 02:45:52;;;;;;;4.90;2.47;;;-1.60;99.90;;;;;;5100483;28;21197;-73
2022/12/12 02:48:35;;;;;;;6.10;2.27;;;-1.60;99.90;;;;;;5105970;27;20904;-73
2022/12/12 02:51:05;;;;;;;4.60;2.55;;;-1.70;99.90;;;;;;5106014;28;20427;-73
2022/12/12 02:53:32;;;;;;;9.45;2.42;;;-1.70;99.90;;;;;;5104763;28;20933;-72
2022/12/12 02:56:07;;;;;;;2.83;1.90;;;-1.70;99.90;;;;;;5091017;28;20446;-72
2022/12/12 02:58:37;;;;;;;3.42;2.03;;;-1.70;99.90;;;;;;5107021;28;20428;-73
2022/12/12 03:01:16;;;;;;;4.25;2.13;;;-1.70;99.90;;;;;;5106521;27;20428;-73
2022/12/12 03:09:48;;;;;;;3.63;2.85;;;-1.70;99.90;;;;;;5096388;28;20444;-72
2022/12/12 03:12:41;;;;;;;3.67;1.70;;;-1.70;99.90;;;;;;5095235;27;20914;-72
2022/12/12 03:15:21;;;;;;;5.43;1.83;;;-1.70;99.90;;;;;;5088936;27;20433;-72
2022/12/12 03:17:57;;;;;;;4.53;2.45;;;-1.70;99.90;;;;;;5080009;28;20431;-72
2022/12/12 03:20:32;;;;;;;6.10;2.17;;;-1.70;99.90;;;;;;5100704;28;20992;-72
2022/12/12 03:23:14;;;;;;;4.30;2.60;;;-1.70;99.90;;;;;;5090595;28;20456;-72
2022/12/12 03:25:56;;;;;;;3.50;1.75;;;-1.70;99.90;;;;;;5104347;27;20992;-73
2022/12/12 03:28:27;;;;;;;3.22;2.92;;;-1.70;99.90;;;;;;5094278;27;20424;-72
2022/12/12 03:30:58;;;;;;;4.47;2.35;;;-1.80;99.90;;;;;;5101407;28;20513;-72
2022/12/12 03:33:49;;;;;;;8.25;2.78;;;-1.80;99.90;;;;;;5083805;28;20432;-72
2022/12/12 03:36:23;;;;;;;4.28;2.72;;;-1.70;99.90;;;;;;5105444;28;20497;-71
2022/12/12 03:38:58;;;;;;;3.03;2.33;;;-1.70;99.90;;;;;;5094406;28;20430;-72
2022/12/12 03:41:32;;;;;;;5.65;2.75;;;-1.70;99.90;;;;;;5100157;28;20430;-71
2022/12/12 03:44:23;;;;;;;2.75;1.83;;;-1.70;99.90;;;;;;5104660;28;20431;-73
2022/12/12 03:46:58;;;;;;;4.63;2.50;;;-1.70;99.90;;;;;;5095752;28;20428;-72
2022/12/12 03:49:39;;;;;;;3.55;2.67;;;-1.70;99.90;;;;;;5104505;28;20807;-73
2022/12/12 03:52:15;;;;;;;2.25;2.05;;;-1.80;99.90;;;;;;5107897;28;20435;-73
2022/12/12 03:54:59;;;;;;;2.85;2.45;;;-1.70;99.90;;;;;;5082188;28;20431;-73
2022/12/12 03:57:37;;;;;;;1.73;1.67;;;-1.70;99.90;;;;;;5097502;28;20476;-73
2022/12/12 04:00:14;;;;;;;3.95;2.30;;;-1.70;99.90;;;;;;5105732;28;20427;-72
2022/12/12 04:03:15;;;;;;;2.07;1.87;;;-1.70;99.90;;;;;;5110167;28;20454;-72
2022/12/12 04:12:57;;;;;;;2.50;2.30;;;-1.70;99.90;;;;;;5092067;28;20426;-72
2022/12/12 04:14:56;;;;;;;2.22;2.10;;;-1.70;99.90;;;;;;5106369;28;20782;-72
2022/12/12 04:17:37;;;;;;;2.95;2.35;;;-1.70;99.90;;;;;;5095793;28;20414;-72
2022/12/12 04:23:14;;;;;;;4.22;2.03;;;-1.60;99.90;;;;;;5111211;28;20898;-72
2022/12/12 04:29:14;;;;;;;6.25;1.73;;;-1.60;99.90;;;;;;5097624;28;20841;-71
2022/12/12 04:31:57;;;;;;;4.35;1.40;;;-1.60;99.90;;;;;;5081615;28;20428;-71
2022/12/12 04:34:41;;;;;;;4.63;2.22;;;-1.60;99.90;;;;;;5093605;28;20427;-71
2022/12/12 04:37:14;;;;;;;4.82;2.20;;;-1.60;99.90;;;;;;5097500;28;20503;-71
2022/12/12 04:39:42;;;;;;;4.17;2.13;;;-1.50;99.90;;;;;;5080719;28;20459;-71
2022/12/12 04:42:15;;;;;;;5.00;2.57;;;-1.50;99.90;;;;;;5097279;27;20489;-71
2022/12/12 04:44:43;;;;;;;5.38;3.00;;;-1.50;99.90;;;;;;5100887;27;20464;-71
2022/12/12 04:47:12;;;;;;;1.80;1.70;;;-1.50;99.90;;;;;;5095021;27;20780;-71
2022/12/12 04:49:40;;;;;;;3.17;2.53;;;-1.50;99.90;;;;;;5106277;27;20946;-71
2022/12/12 04:52:10;;;;;;;3.60;2.60;;;-1.50;99.90;;;;;;5105748;28;20475;-72
2022/12/12 04:55:02;;;;;;;3.65;2.00;;;-1.40;99.90;;;;;;5102529;27;20929;-71
2022/12/12 04:57:38;;;;;;;1.80;1.55;;;-1.40;99.90;;;;;;5106076;27;20934;-71
2022/12/12 05:00:10;;;;;;;3.88;1.83;;;-1.40;99.90;;;;;;5111296;27;20427;-71
2022/12/12 05:02:46;;;;;;;4.27;2.47;;;-1.40;99.90;;;;;;5109700;27;20934;-71
2022/12/12 05:05:39;;;;;;;3.40;2.33;;;-1.30;99.90;;;;;;5096146;27;20480;-71
2022/12/12 05:08:29;;;;;;;3.47;2.65;;;-1.30;99.90;;;;;;5084421;28;20483;-71
2022/12/12 05:11:01;;;;;;;6.25;2.22;;;-1.30;99.90;;;;;;5098182;27;20457;-71
2022/12/12 05:13:35;;;;;;;3.67;2.50;;;-1.30;99.90;;;;;;5108431;27;20420;-71
2022/12/12 05:16:12;;;;;;;1.63;1.52;;;-1.30;99.90;;;;;;5107273;27;20430;-71
2022/12/12 05:18:42;;;;;;;3.08;2.13;;;-1.30;99.90;;;;;;5107845;28;20514;-71
2022/12/12 05:21:09;;;;;;;3.25;2.42;;;-1.30;99.90;;;;;;5108776;27;20425;-71
2022/12/12 05:23:42;;;;;;;3.40;2.08;;;-1.30;99.90;;;;;;5108451;27;20460;-71
2022/12/12 05:26:16;;;;;;;1.95;1.83;;;-1.20;99.90;;;;;;5107693;27;20464;-71
2022/12/12 05:28:43;;;;;;;2.65;1.77;;;-1.20;99.90;;;;;;5105795;28;20917;-71
2022/12/12 05:31:10;;;;;;;2.38;2.17;;;-1.20;99.90;;;;;;5111179;27;20478;-71
2022/12/12 05:33:36;;;;;;;2.78;1.83;;;-1.20;99.90;;;;;;5111375;27;20444;-71
2022/12/12 05:36:03;;;;;;;2.30;1.40;;;-1.20;99.90;;;;;;5103459;27;20435;-71
2022/12/12 05:38:30;;;;;;;4.57;2.83;;;-1.20;99.90;;;;;;5115230;27;20498;-71
2022/12/12 05:40:56;;;;;;;3.13;1.92;;;-1.30;99.90;;;;;;5109957;27;20906;-71
2022/12/12 05:43:23;;;;;;;2.13;1.73;;;-1.30;99.90;;;;;;5102479;27;20507;-71
2022/12/12 05:45:50;;;;;;;2.95;1.73;;;-1.30;99.90;;;;;;5105874;27;20431;-71
2022/12/12 05:48:17;;;;;;;3.73;2.07;;;-1.40;99.90;;;;;;5110625;27;20807;-71
2022/12/12 05:50:50;;;;;;;3.88;1.52;;;-1.40;99.90;;;;;;5111757;27;20505;-71
2022/12/12 05:53:17;;;;;;;3.33;2.30;;;-1.40;99.90;;;;;;5105010;27;20895;-71
2022/12/12 05:55:44;;;;;;;8.00;2.33;;;-1.50;99.90;;;;;;5105967;27;20463;-71
2022/12/12 05:58:11;;;;;;;2.28;1.67;;;-1.50;99.90;;;;;;5105110;28;20420;-71
2022/12/12 06:00:38;;;;;;;1.33;1.30;;;-1.50;99.90;;;;;;5105451;28;20446;-71
2022/12/12 06:03:05;;;;;;;3.53;2.55;;;-1.50;99.90;;;;;;5104458;27;20428;-71
2022/12/12 06:05:32;;;;;;;4.70;1.70;;;-1.60;99.90;;;;;;5105437;28;21823;-72
2022/12/12 06:07:58;;;;;;;4.75;1.92;;;-1.60;99.90;;;;;;5109544;27;20972;-71
2022/12/12 06:10:25;;;;;;;2.30;2.10;;;-1.60;99.90;;;;;;5103034;27;20432;-71
2022/12/12 06:12:52;;;;;;;2.33;2.15;;;-1.60;99.90;;;;;;5102856;27;20430;-71
2022/12/12 06:15:21;;;;;;;4.72;2.10;;;-1.60;99.90;;;;;;5099637;28;20519;-70
2022/12/12 06:17:57;;;;;;;1.95;1.83;;;-1.60;99.90;;;;;;5080336;28;20481;-71
2022/12/12 06:20:24;;;;;;;7.40;1.80;;;-1.60;99.90;;;;;;5101145;28;20424;-71
2022/12/12 06:22:50;;;;;;;1.43;1.37;;;-1.60;99.90;;;;;;5100080;28;20443;-70
2022/12/12 06:25:20;;;;;;;3.88;1.50;;;-1.70;99.90;;;;;;5107004;28;20906;-70
2022/12/12 06:27:46;;;;;;;7.20;1.80;;;-1.70;99.90;;;;;;5096498;28;20428;-70
2022/12/12 06:30:17;;;;;;;3.20;2.45;;;-1.70;99.90;;;;;;5101182;28;20447;-70
2022/12/12 06:32:43;;;;;;;4.85;1.80;;;-1.70;99.90;;;;;;5106145;28;20547;-70
2022/12/12 06:35:14;;;;;;;1.90;1.17;;;-1.70;99.90;;;;;;5102845;28;20423;-70
2022/12/12 06:37:42;;;;;;;3.67;2.22;;;-1.70;99.90;;;;;;5080567;28;20425;-71
2022/12/12 06:40:10;;;;;;;3.55;1.92;;;-1.70;99.90;;;;;;5098158;28;20432;-70
2022/12/12 06:42:37;;;;;;;1.77;1.40;;;-1.70;99.90;;;;;;5098158;27;20418;-70
2022/12/12 06:45:12;;;;;;;2.97;2.15;;;-1.70;99.90;;;;;;5115258;27;20840;-71
2022/12/12 06:47:39;;;;;;;2.60;1.65;;;-1.70;99.90;;;;;;5106127;27;20428;-70
2022/12/12 06:50:06;;;;;;;7.07;2.08;;;-1.70;99.90;;;;;;5106859;27;20772;-70
2022/12/12 06:52:33;;;;;;;2.25;2.15;;;-1.70;99.90;;;;;;5098458;27;20420;-70
2022/12/12 06:55:00;;;;;;;1.00;1.00;;;-1.70;99.90;;;;;;5099140;27;20428;-70
2022/12/12 06:57:27;;;;;;;1.75;1.65;;;-1.70;99.90;;;;;;5095669;28;20434;-70
2022/12/12 06:59:56;;;;;;;3.10;1.75;;;-1.80;99.90;;;;;;5098988;28;20435;-69
2022/12/12 07:02:23;;;;;;;2.28;2.08;;;-1.80;99.90;;;;;;5086300;28;20436;-71
2022/12/12 07:04:56;;;;;;;4.05;1.80;;;-1.80;99.90;;;;;;5102735;28;20474;-71
2022/12/12 07:07:23;;;;;;;3.03;2.17;;;-1.90;99.90;;;;;;5086361;28;20465;-71
2022/12/12 07:09:49;;;;;;;2.17;2.05;;;-1.90;99.90;;;;;;5105848;27;20433;-71
2022/12/12 07:12:16;;;;;;;2.80;2.60;;;-1.90;99.90;;;;;;5099087;27;20434;-71
2022/12/12 07:14:43;;;;;;;1.42;1.33;;;-1.90;99.90;;;;;;5109002;27;20424;-71
2022/12/12 07:17:10;;;;;;;1.85;1.45;;;-1.90;99.90;;;;;;5112832;27;20499;-71
2022/12/12 07:19:36;;;;;;;3.20;2.45;;;-1.90;99.90;;;;;;5093890;28;20447;-71
2022/12/12 07:22:03;;;;;;;2.90;2.60;;;-1.90;99.90;;;;;;5105584;27;20938;-71
2022/12/12 07:24:36;;;;;;;4.35;1.70;;;-1.90;99.90;;;;;;5102817;28;20440;-71
2022/12/12 07:27:05;;;;;;;1.23;1.20;;;-1.80;99.90;;;;;;5093553;28;20648;-72
2022/12/12 07:29:32;;;;;;;3.73;2.27;;;-1.80;99.90;;;;;;5110050;27;20477;-69
2022/12/12 07:31:59;;;;;;;8.25;2.55;;;-1.80;99.90;;;;;;5101614;27;20422;-70
2022/12/12 07:34:28;;;;;;;1.67;1.23;;;-1.80;99.90;;;;;;5093264;28;20431;-70
2022/12/12 07:36:55;;;;;;;2.10;1.70;;;-1.80;99.90;;;;;;5083355;28;20433;-70
2022/12/12 07:39:30;;;;;;;2.33;1.30;;;-1.70;99.90;;;;;;5102305;28;21176;-70
2022/12/12 07:41:57;;;;;;;6.65;2.55;;;-1.70;99.90;;;;;;5099094;28;20426;-70
2022/12/12 07:44:23;;;;;;;3.58;1.77;;;-1.70;99.90;;;;;;5095989;28;20416;-71
2022/12/12 07:46:51;;;;;;;5.55;1.85;;;-1.70;99.90;;;;;;5099050;28;20424;-70
2022/12/12 07:49:17;;;;;;;2.37;2.20;;;-1.60;99.90;;;;;;5103057;28;20468;-71
2022/12/12 07:51:44;;;;;;;1.55;1.45;;;-1.60;99.90;;;;;;5100998;28;20440;-70
2022/12/12 07:54:21;;;;;;;2.78;2.20;;;-1.60;99.90;;;;;;5092166;28;20435;-70
2022/12/12 07:56:50;;;;;;;5.03;2.35;;;-1.60;99.90;;;;;;5108036;28;20423;-70
2022/12/12 07:59:17;;;;;;;4.18;2.58;;;-1.50;99.90;;;;;;5085219;28;20430;-69
2022/12/12 08:01:44;;;;;;;7.78;2.80;;;-1.50;99.90;;;;;;5097362;28;20447;-71
2022/12/12 08:04:11;;;;;;;1.17;1.15;;;-1.50;99.90;;;;;;5103008;28;20434;-70
2022/12/12 08:06:38;;;;;;;2.53;2.33;;;-1.40;99.90;;;;;;5099251;28;20953;-70
2022/12/12 08:09:04;;;;;;;5.03;2.30;;;-1.40;99.90;;;;;;5081487;28;20418;-69
2022/12/12 08:11:31;;;;;;;4.65;2.50;;;-1.30;99.90;;;;;;5092327;28;20431;-69
2022/12/12 08:13:58;;;;;;;6.43;2.10;;;-1.30;99.90;;;;;;5096983;28;20425;-70
2022/12/12 08:16:26;;;;;;;2.47;2.28;;;-1.20;99.90;;;;;;5095746;28;20432;-70
2022/12/12 08:18:55;;;;;;;2.85;2.25;;;-1.20;99.90;;;;;;5099331;27;20546;-70
2022/12/12 08:21:23;;;;;;;5.57;3.53;;;-1.10;99.90;;;;;;5104420;28;20423;-70
2022/12/12 08:24:00;;;;;;;3.30;2.93;;;-1.10;99.90;;;;;;5100648;27;20432;-70
2022/12/12 08:26:27;;;;;;;5.07;3.33;;;-1.10;99.90;;;;;;5107503;27;20440;-70
2022/12/12 08:28:56;;;;;;;4.07;2.60;;;-1.00;99.90;;;;;;5115923;27;20422;-70
2022/12/12 08:31:23;;;;;;;3.65;3.05;;;-0.90;99.90;;;;;;5103858;27;20443;-70
2022/12/12 08:33:50;;;;;;;2.95;2.58;;;-0.80;99.90;;;;;;5102124;27;20441;-70
2022/12/12 08:36:31;;;;;;;5.80;2.90;;;-0.70;99.90;;;;;;5087592;28;20430;-69
2022/12/12 08:39:04;;;;;;;4.80;2.58;;;-0.60;99.90;;;;;;5104163;27;22062;-70
2022/12/12 08:41:30;;;;;;;7.32;3.42;;;-0.50;99.90;;;;;;5098738;28;21189;-70
2022/12/12 08:44:00;;;;;;;13.50;3.30;;;-0.30;99.90;;;;;;5105188;27;20440;-71
2022/12/12 08:46:27;;;;;;;4.15;2.55;;;-0.20;99.90;;;;;;5112911;27;20432;-70
2022/12/12 08:48:53;;;;;;;5.47;2.83;;;-0.10;99.90;;;;;;5111977;27;20432;-71
2022/12/12 08:51:21;;;;;;;4.68;2.53;;;-0.10;99.90;;;;;;5103155;28;20428;-71
2022/12/12 08:53:48;;;;;;;2.67;2.40;;;0.00;99.90;;;;;;5106137;28;20420;-70
2022/12/12 08:56:16;;;;;;;6.07;2.63;;;0.10;99.90;;;;;;5108883;27;20439;-70
2022/12/12 08:58:43;;;;;;;5.55;3.13;;;0.20;99.90;;;;;;5103390;27;20425;-71
2022/12/12 09:01:12;;;;;;;4.37;2.30;;;0.30;99.90;;;;;;5103783;27;20430;-73
2022/12/12 09:03:39;;;;;;;5.37;2.37;;;0.40;99.90;;;;;;5097431;28;20424;-70
2022/12/12 09:06:07;;;;;;;2.85;1.90;;;0.70;99.90;;;;;;5120076;27;20523;-70
2022/12/12 09:08:34;;;;;;;5.47;2.88;;;0.90;99.90;;;;;;5109345;27;20760;-70
2022/12/12 09:11:02;;;;;;;4.53;2.70;;;1.00;99.90;;;;;;5104013;28;20420;-70
2022/12/12 09:13:29;;;;;;;5.57;2.22;;;1.00;99.90;;;;;;5104590;27;20898;-70
2022/12/12 09:15:56;;;;;;;2.90;2.73;;;1.00;99.90;;;;;;5102189;27;20429;-70
2022/12/12 09:18:25;;;;;;;4.47;2.83;;;1.20;99.90;;;;;;5105403;27;20432;-71
2022/12/12 09:20:55;;;;;;;4.03;2.17;;;1.40;99.90;;;;;;5103226;27;21018;-72
2022/12/12 09:23:23;;;;;;;5.07;2.67;;;1.30;99.90;;;;;;5106202;28;20839;-73
2022/12/12 09:25:50;;;;;;;4.28;2.95;;;1.40;99.90;;;;;;5089920;28;20432;-72
2022/12/12 09:28:18;;;;;;;4.07;3.55;;;1.20;99.90;;;;;;5111043;27;20430;-72
2022/12/12 09:30:46;;;;;;;4.57;2.70;;;1.10;99.90;;;;;;5102797;27;20439;-72
2022/12/12 09:33:13;;;;;;;5.20;3.17;;;1.00;99.90;;;;;;5111052;27;20454;-73
2022/12/12 09:35:41;;;;;;;10.02;2.78;;;0.90;99.90;;;;;;5098270;28;20907;-73
2022/12/12 09:38:08;;;;;;;4.45;1.55;;;0.80;99.90;;;;;;5111552;27;20432;-74
2022/12/12 09:41:16;;;;;;;4.33;2.43;;;0.70;99.90;;;;;;5108628;27;20483;-74
2022/12/12 09:44:04;;;;;;;7.20;2.50;;;0.80;99.90;;;;;;5110738;27;20438;-70
2022/12/12 09:46:42;;;;;;;3.03;1.83;;;0.90;99.90;;;;;;5098556;27;20428;-71
2022/12/12 09:49:25;;;;;;;3.13;2.17;;;1.00;99.90;;;;;;5106194;27;20838;-71
2022/12/12 09:51:53;;;;;;;3.78;2.55;;;0.90;99.90;;;;;;5105737;27;21118;-71
2022/12/12 09:54:25;;;;;;;6.55;2.80;;;1.10;99.90;;;;;;5116707;27;20505;-68
2022/12/12 09:57:04;;;;;;;2.70;1.92;;;1.20;99.90;;;;;;5106115;27;20775;-68
2022/12/12 10:00:02;;;;;;;3.65;2.10;;;1.10;99.90;;;;;;5113578;27;20427;-69
2022/12/12 10:03:06;;;;;;;8.38;3.22;;;1.10;99.90;;;;;;5092176;27;20426;-69
2022/12/12 10:05:56;;;;;;;3.80;2.33;;;1.30;99.90;;;;;;5104652;28;20431;-69
2022/12/12 10:09:09;;;;;;;2.40;2.17;;;1.60;99.90;;;;;;5098708;27;20486;-70
2022/12/12 10:11:54;;;;;;;2.60;1.97;;;1.80;99.90;;;;;;5061905;27;20430;-69
2022/12/12 10:14:36;;;;;;;4.22;2.30;;;1.60;99.90;;;;;;5104664;27;20420;-70
2022/12/12 10:17:10;;;;;;;2.83;2.20;;;1.50;99.90;;;;;;5093299;28;20432;-70
2022/12/12 10:19:51;;;;;;;3.05;1.45;;;1.60;99.90;;;;;;5103638;28;20451;-69
2022/12/12 10:22:31;;;;;;;2.70;2.17;;;1.70;99.90;;;;;;5108538;27;20924;-68
2022/12/12 10:25:06;;;;;;;3.65;2.00;;;1.80;99.90;;;;;;5092165;28;20425;-69
2022/12/12 10:27:33;;;;;;;3.80;2.38;;;2.00;99.90;;;;;;5116508;27;20431;-68
2022/12/12 10:30:14;;;;;;;3.10;2.30;;;2.10;99.90;;;;;;5099213;27;20917;-69
2022/12/12 10:32:56;;;;;;;2.55;2.35;;;2.10;99.90;;;;;;5110616;27;20418;-69
2022/12/12 10:35:54;;;;;;;7.20;3.42;;;2.10;99.90;;;;;;5112004;27;20475;-69
2022/12/12 10:38:50;;;;;;;5.20;2.50;;;2.10;99.90;;;;;;5108687;27;21180;-69
2022/12/12 10:41:26;;;;;;;4.78;1.88;;;2.20;99.90;;;;;;5083097;28;20428;-69
2022/12/12 10:43:58;;;;;;;5.80;2.77;;;2.30;99.90;;;;;;5110502;27;20831;-69
2022/12/12 10:46:42;;;;;;;3.70;2.73;;;2.50;99.90;;;;;;5098347;28;20501;-69
2022/12/12 10:49:15;;;;;;;3.35;2.22;;;2.60;99.90;;;;;;5099125;27;21501;-68
2022/12/12 10:51:44;;;;;;;3.00;2.25;;;2.50;99.90;;;;;;5092733;27;20424;-68
2022/12/12 10:54:17;;;;;;;4.10;2.53;;;2.50;99.90;;;;;;5101457;27;20424;-68
2022/12/12 10:57:05;;;;;;;3.47;1.80;;;2.50;99.90;;;;;;5107846;27;20941;-69
2022/12/12 10:59:45;;;;;;;2.78;2.00;;;2.50;99.90;;;;;;5105611;27;20431;-69
2022/12/12 11:02:24;;;;;;;1.95;1.80;;;2.20;99.90;;;;;;5093499;27;20420;-69
2022/12/12 11:05:03;;;;;;;4.85;2.70;;;2.10;99.90;;;;;;5102175;27;20794;-69
2022/12/12 11:07:36;;;;;;;2.33;1.80;;;1.90;99.90;;;;;;5103589;27;20910;-69
2022/12/12 11:10:33;;;;;;;5.07;3.08;;;1.80;99.90;;;;;;5088105;28;20439;-69
2022/12/12 11:13:09;;;;;;;3.03;1.65;;;1.60;99.90;;;;;;5100990;27;20526;-69
2022/12/12 11:15:55;;;;;;;6.10;3.22;;;1.50;99.90;;;;;;5093514;27;22215;-70
2022/12/12 11:18:23;;;;;;;2.73;2.13;;;1.70;99.90;;;;;;5096377;28;20431;-70
2022/12/12 11:21:01;;;;;;;3.53;2.45;;;1.80;99.90;;;;;;5094271;28;20431;-70
2022/12/12 11:23:30;;;;;;;2.67;2.47;;;1.90;99.90;;;;;;5099099;27;20434;-70
2022/12/12 11:26:00;;;;;;;4.00;1.90;;;2.00;99.90;;;;;;5100203;28;20439;-70
2022/12/12 11:28:32;;;;;;;2.15;1.73;;;2.20;99.90;;;;;;5100917;28;20450;-70
2022/12/12 11:31:03;;;;;;;3.25;1.75;;;2.40;99.90;;;;;;5094619;27;20432;-70
2022/12/12 11:33:34;;;;;;;2.92;2.40;;;2.50;99.90;;;;;;5092767;28;21352;-70
2022/12/12 11:36:05;;;;;;;6.78;3.38;;;2.60;99.90;;;;;;5097746;28;20474;-70
2022/12/12 11:38:37;;;;;;;2.40;2.00;;;2.40;99.90;;;;;;5104959;27;20504;-70
2022/12/12 11:41:09;;;;;;;2.47;1.90;;;2.50;99.90;;;;;;5090542;28;20448;-69
2022/12/12 11:43:53;;;;;;;5.85;2.13;;;2.50;99.90;;;;;;5098075;28;20428;-70
2022/12/12 11:46:25;;;;;;;3.00;1.98;;;2.70;99.90;;;;;;5095724;28;20428;-70
2022/12/12 11:49:00;;;;;;;3.17;2.60;;;2.80;99.90;;;;;;5097221;28;20429;-70
2022/12/12 11:51:36;;;;;;;4.07;2.20;;;3.00;99.90;;;;;;5093772;28;20428;-70
2022/12/12 11:54:11;;;;;;;3.88;2.42;;;3.10;99.90;;;;;;5099148;28;20427;-70
2022/12/12 11:56:50;;;;;;;5.20;2.97;;;3.00;99.90;;;;;;5114414;28;20419;-70
2022/12/12 11:59:56;;;;;;;7.88;3.80;;;3.00;99.90;;;;;;5099058;28;20423;-70
2022/12/12 12:02:50;;;;;;;2.80;2.25;;;2.90;99.90;;;;;;5095179;28;20794;-70
2022/12/12 12:05:36;;;;;;;2.28;1.90;;;2.70;99.90;;;;;;5091586;28;20424;-70
2022/12/12 12:08:20;;;;;;;3.40;2.38;;;2.40;99.90;;;;;;5093208;28;20444;-70
2022/12/12 12:11:11;;;;;;;2.85;1.77;;;2.40;99.90;;;;;;5104458;28;20463;-70
2022/12/12 12:13:47;;;;;;;4.43;2.65;;;2.60;99.90;;;;;;5102248;28;20507;-70
2022/12/12 12:17:00;;;;;;;6.55;3.15;;;2.60;99.90;;;;;;5100145;28;21125;-70
2022/12/12 12:19:27;;;;;;;3.65;2.65;;;3.00;99.90;;;;;;5008774;28;20945;-70
2022/12/12 12:22:03;;;;;;;2.50;1.90;;;3.00;99.90;;;;;;5091734;28;20416;-70
2022/12/12 12:24:47;;;;;;;8.70;2.33;;;2.70;99.90;;;;;;5100612;28;20428;-70
2022/12/12 12:27:23;;;;;;;3.60;2.15;;;2.60;99.90;;;;;;5095804;28;20429;-70
2022/12/12 12:30:17;;;;;;;4.23;3.00;;;2.50;99.90;;;;;;5105164;28;20442;-73
2022/12/12 12:32:59;;;;;;;3.25;1.98;;;2.30;99.90;;;;;;5094535;28;20886;-70
2022/12/12 12:35:31;;;;;;;2.27;2.13;;;2.10;99.90;;;;;;5101213;28;20457;-70
2022/12/12 12:37:58;;;;;;;4.22;2.33;;;2.10;99.90;;;;;;5096448;28;20418;-70
2022/12/12 12:40:55;;;;;;;4.20;1.90;;;1.90;99.90;;;;;;5095389;28;20506;-70
2022/12/12 12:43:56;;;;;;;3.05;1.98;;;1.60;99.90;;;;;;5083191;28;21027;-69
2022/12/12 12:46:44;;;;;;;3.30;1.95;;;1.40;99.90;;;;;;5101609;28;20440;-70
2022/12/12 12:49:20;;;;;;;4.33;2.13;;;1.40;99.90;;;;;;5102612;28;20507;-70
2022/12/12 12:52:01;;;;;;;3.33;1.85;;;1.40;99.90;;;;;;5111065;28;20428;-70
2022/12/12 12:54:37;;;;;;;1.90;1.70;;;1.60;99.90;;;;;;5084307;28;20430;-70
2022/12/12 12:57:23;;;;;;;5.03;2.70;;;1.80;99.90;;;;;;5106743;28;20457;-70
2022/12/12 12:59:59;;;;;;;2.75;2.53;;;2.30;99.90;;;;;;5074487;28;20424;-70
2022/12/12 13:02:39;;;;;;;4.65;2.45;;;3.10;99.90;;;;;;5100288;27;20505;-70
2022/12/12 13:05:21;;;;;;;2.65;2.15;;;3.80;99.90;;;;;;5108786;27;20426;-70
2022/12/12 13:08:19;;;;;;;2.85;2.60;;;4.30;99.90;;;;;;5109088;27;20432;-70
2022/12/12 13:10:56;;;;;;;4.50;2.47;;;4.40;99.90;;;;;;5093896;27;20452;-71
2022/12/12 13:13:32;;;;;;;2.30;1.67;;;4.30;99.90;;;;;;5110656;27;20477;-71
2022/12/12 13:16:14;;;;;;;3.28;1.88;;;4.40;99.90;;;;;;5090279;27;20420;-70
2022/12/12 13:18:45;;;;;;;4.65;2.20;;;3.90;99.90;;;;;;5104087;27;20434;-70
2022/12/12 13:21:32;;;;;;;5.32;2.65;;;4.10;99.90;;;;;;5107361;27;20520;-70
2022/12/12 13:24:12;;;;;;;3.22;2.05;;;3.70;99.90;;;;;;5095715;27;20435;-70
2022/12/12 13:26:53;;;;;;;2.15;1.83;;;3.20;99.90;;;;;;5097420;28;20441;-70
2022/12/12 13:29:22;;;;;;;3.65;2.90;;;3.00;99.90;;;;;;5105593;27;20433;-70
2022/12/12 13:32:26;;;;;;;5.75;3.55;;;3.00;99.90;;;;;;5092379;27;21124;-70
2022/12/12 13:34:59;;;;;;;3.00;2.35;;;2.80;99.90;;;;;;5097824;27;20493;-74
2022/12/12 13:37:28;;;;;;;2.90;1.83;;;2.40;99.90;;;;;;5081589;28;20424;-73
2022/12/12 13:40:01;;;;;;;4.45;2.05;;;2.10;99.90;;;;;;5097461;27;20438;-73
2022/12/12 13:42:50;;;;;;;1.40;1.23;;;1.80;99.90;;;;;;5098113;27;20428;-70
2022/12/12 13:45:42;;;;;;;1.65;1.55;;;1.40;99.90;;;;;;5099881;27;20426;-70